EDT,Max TemperatureF,Mean TemperatureF,Min TemperatureF,Max Dew PointF,MeanDew PointF,Min DewpointF,Max Humidity, Mean Humidity, Min Humidity, Max Sea Level PressureIn, Mean Sea Level PressureIn, Min Sea Level PressureIn, Max VisibilityMiles, Mean VisibilityMiles, Min VisibilityMiles, Max Wind SpeedMPH, Mean Wind SpeedMPH, Max Gust SpeedMPH,PrecipitationIn, CloudCover, Events, WindDirDegrees
2012-10-1,62,60,59,63,59,57,100,98,94,29.92,29.87,29.84,10,4,1,8,2,,0.22,8,Rain,57
2012-10-2,82,72,62,72,66,63,100,85,54,29.99,29.86,29.78,10,6,0,12,3,20,0.39,6,Fog-Rain,186
2012-10-3,78,70,62,64,62,59,100,83,51,30.22,30.11,29.99,10,8,3,9,1,,0.01,4,Rain,214
2012-10-4,78,68,57,64,59,52,100,81,39,30.27,30.22,30.18,10,8,1,6,1,,0.01,1,Rain,323
2012-10-5,80,66,51,61,55,52,100,77,37,30.23,30.14,30.05,10,10,4,7,1,,0.00,1,,189
2012-10-6,82,66,51,63,57,52,100,78,35,30.05,29.97,29.90,10,7,0,7,1,,0.58,3,Fog-Rain,273
2012-10-7,60,56,51,59,52,46,100,92,82,30.15,30.05,29.98,10,10,4,9,4,,0.41,8,Rain,19
2012-10-8,51,48,44,45,43,41,100,83,71,30.22,30.17,30.14,10,10,4,10,6,18,0.00,8,Rain,12
2012-10-9,59,52,44,52,46,43,100,85,59,30.19,30.14,30.09,10,10,7,7,3,,0.00,8,,347
2012-10-10,71,58,46,50,47,45,100,72,43,30.15,30.08,30.03,10,10,10,9,2,,0.00,4,,260
2012-10-11,68,54,41,48,41,36,100,71,33,30.32,30.24,30.15,10,10,7,8,2,,0.00,0,,343
2012-10-12,75,58,41,55,48,41,100,77,41,30.33,30.23,30.19,10,10,5,7,1,,0.00,2,,296
2012-10-13,66,55,44,48,42,34,100,69,37,30.49,30.39,30.33,10,10,10,9,3,16,0.00,0,,25
2012-10-14,69,56,42,59,51,43,100,86,49,30.33,30.21,30.05,10,9,5,6,1,,0.00,5,,252
2012-10-15,77,64,50,64,55,39,100,76,31,30.05,29.89,29.77,10,10,3,12,3,21,0.26,5,Rain,260
2012-10-16,69,55,41,48,42,36,100,70,28,30.00,29.93,29.89,10,10,5,6,0,,0.00,0,,276
2012-10-17,71,56,41,50,44,39,100,77,31,30.02,29.94,29.90,10,9,5,7,1,,0.00,0,,233
2012-10-18,73,58,42,61,51,43,100,85,50,29.92,29.85,29.78,10,8,0,12,1,21,0.17,5,Fog-Rain,240
2012-10-19,71,58,42,55,43,27,100,69,20,29.81,29.77,29.72,10,6,0,17,3,23,0.01,3,Fog,237
2012-10-20,69,54,39,50,41,36,100,68,31,29.98,29.85,29.77,10,10,10,8,1,,0.00,0,,289
2012-10-21,68,52,37,46,41,36,100,75,30,30.17,30.10,29.99,10,10,10,6,0,,0.00,0,,274
2012-10-22,77,58,39,52,45,39,100,76,29,30.25,30.19,30.15,10,10,10,4,0,,0.00,0,,222
2012-10-23,78,60,42,54,47,43,100,74,30,30.21,30.16,30.11,10,10,7,8,1,,0.00,0,,240
2012-10-24,80,61,42,54,47,43,100,74,26,30.22,30.15,30.10,10,9,4,6,0,,0.00,0,,254
2012-10-25,78,60,42,59,51,43,100,79,39,30.18,30.13,30.10,10,10,7,6,0,,0.00,2,,247
2012-10-26,77,64,50,59,54,50,100,78,44,30.13,30.05,29.98,10,9,2,12,2,18,0.00,1,,18
2012-10-27,71,65,59,59,55,52,94,76,53,29.96,29.83,29.73,10,10,7,13,6,20,0.00,5,,357
2012-10-28,68,59,48,50,44,34,77,60,40,29.78,29.71,29.64,10,10,10,10,6,18,0.00,3,Rain,330
2012-10-29,51,46,41,32,31,28,70,57,41,29.71,29.63,29.51,10,10,10,13,6,22,0.00,6,Rain,296
2012-10-30,50,46,41,32,30,28,70,57,43,29.65,29.52,29.43,10,10,10,15,10,26,0.00,6,,265
2012-10-31,57,45,33,36,33,32,100,68,38,29.79,29.71,29.63,10,10,10,12,4,21,0.00,3,,271